sensor_id;sensor_type;location;lat;lon;timestamp;temperature;humidity
46634;DHT22;32362;49.986;8.026;2023-02-15T00:07:36;2.80;99.90
46634;DHT22;32362;49.986;8.026;2023-02-15T00:34:27;3.10;99.90
46634;DHT22;32362;49.986;8.026;2023-02-15T01:01:13;3.20;99.90
46634;DHT22;32362;49.986;8.026;2023-02-15T01:27:54;3.20;99.90
46634;DHT22;32362;49.986;8.026;2023-02-15T01:54:36;3.10;99.90
46634;DHT22;32362;49.986;8.026;2023-02-15T02:48:34;3.00;99.90
46634;DHT22;32362;49.986;8.026;2023-02-15T03:15:19;2.80;99.90
46634;DHT22;32362;49.986;8.026;2023-02-15T03:42:26;2.70;99.90
46634;DHT22;32362;49.986;8.026;2023-02-15T04:09:07;2.70;99.90
46634;DHT22;32362;49.986;8.026;2023-02-15T04:36:07;2.70;99.90
46634;DHT22;32362;49.986;8.026;2023-02-15T05:02:47;2.70;99.90
46634;DHT22;32362;49.986;8.026;2023-02-15T05:29:28;2.60;99.90
46634;DHT22;32362;49.986;8.026;2023-02-15T05:56:10;2.40;99.90
46634;DHT22;32362;49.986;8.026;2023-02-15T06:22:50;2.00;99.90
46634;DHT22;32362;49.986;8.026;2023-02-15T06:49:33;1.70;99.90
46634;DHT22;32362;49.986;8.026;2023-02-15T07:16:13;2.20;99.90
46634;DHT22;32362;49.986;8.026;2023-02-15T07:42:57;2.30;99.90
46634;DHT22;32362;49.986;8.026;2023-02-15T08:09:39;2.20;99.90
46634;DHT22;32362;49.986;8.026;2023-02-15T08:36:22;2.70;99.90
46634;DHT22;32362;49.986;8.026;2023-02-15T09:03:03;2.80;99.90
46634;DHT22;32362;49.986;8.026;2023-02-15T09:29:43;2.90;99.90
46634;DHT22;32362;49.986;8.026;2023-02-15T11:17:16;3.70;99.90
46634;DHT22;32362;49.986;8.026;2023-02-15T11:44:10;4.00;99.90
46634;DHT22;32362;49.986;8.026;2023-02-15T12:10:57;4.30;99.90
46634;DHT22;32362;49.986;8.026;2023-02-15T12:37:38;4.60;99.90
46634;DHT22;32362;49.986;8.026;2023-02-15T13:04:24;4.60;99.90
46634;DHT22;32362;49.986;8.026;2023-02-15T13:31:12;4.80;99.00
46634;DHT22;32362;49.986;8.026;2023-02-15T15:18:44;4.80;99.60
46634;DHT22;32362;49.986;8.026;2023-02-15T16:12:16;4.80;99.80
46634;DHT22;32362;49.986;8.026;2023-02-15T16:39:06;4.60;99.90
46634;DHT22;32362;49.986;8.026;2023-02-15T17:32:32;4.20;99.90
46634;DHT22;32362;49.986;8.026;2023-02-15T17:59:14;4.20;99.90
46634;DHT22;32362;49.986;8.026;2023-02-15T18:25:55;4.00;99.90
46634;DHT22;32362;49.986;8.026;2023-02-15T18:52:36;3.90;99.90
46634;DHT22;32362;49.986;8.026;2023-02-15T19:19:17;3.70;99.90
46634;DHT22;32362;49.986;8.026;2023-02-15T19:45:58;3.60;99.90
46634;DHT22;32362;49.986;8.026;2023-02-15T20:12:39;3.70;99.90
46634;DHT22;32362;49.986;8.026;2023-02-15T20:39:19;3.50;99.90
46634;DHT22;32362;49.986;8.026;2023-02-15T21:06:00;3.40;99.90
46634;DHT22;32362;49.986;8.026;2023-02-15T21:32:41;3.50;99.90
46634;DHT22;32362;49.986;8.026;2023-02-15T21:59:22;3.30;99.90
46634;DHT22;32362;49.986;8.026;2023-02-15T22:26:10;3.30;99.90
46634;DHT22;32362;49.986;8.026;2023-02-15T22:52:53;3.20;99.90
46634;DHT22;32362;49.986;8.026;2023-02-15T23:19:34;2.80;99.90
46634;DHT22;32362;49.986;8.026;2023-02-15T23:46:22;2.80;99.90
